TAM4685 SBPV-SBKP
Flight info
| Callsign | TAM4685 |
|---|---|
| Flight time | 3h 13m |
| Altitude | 37000 |
| Route | DIKAL UL655 ANRIR DCT SINIP UZ82 TITVO UM411 UTLOT |
| Aircraft | A320/M-SDE3FGHIRWY/LB1 |
Departure
| Time | 2026-04-20 22:09 |
|---|---|
| Airport | Governador Jorge Teixeira de Oliveira International Airport (SBPV) |
Arrival
| Time | 2026-04-21 01:23 |
|---|---|
| Airport | Viracopos International Airport (SBKP) |
| Time | Latitude | Longitude | Altitude | Speed | Heading |
|---|---|---|---|---|---|
| 2026-04-20 21:48 | -8.71492 | -63.89932 | 300 ft | 0 kts | 86° |
| 2026-04-20 22:03 | -8.71492 | -63.89941 | 324 ft | 4 kts | 86° |
| 2026-04-20 22:03 | -8.71493 | -63.89968 | 299 ft | 4 kts | 89° |
| 2026-04-20 22:03 | -8.71493 | -63.89996 | 299 ft | 4 kts | 93° |
| 2026-04-20 22:03 | -8.71491 | -63.90023 | 299 ft | 4 kts | 103° |
| 2026-04-20 22:04 | -8.71481 | -63.90047 | 300 ft | 4 kts | 139° |
| 2026-04-20 22:04 | -8.71469 | -63.90053 | 301 ft | 1 kts | 176° |
| 2026-04-20 22:04 | -8.71467 | -63.90053 | 301 ft | 0 kts | 176° |
| 2026-04-20 22:06 | -8.71531 | -63.90050 | 299 ft | 14 kts | 174° |
| 2026-04-20 22:06 | -8.71622 | -63.90044 | 299 ft | 12 kts | 178° |
| 2026-04-20 22:07 | -8.71701 | -63.90039 | 300 ft | 10 kts | 175° |
| 2026-04-20 22:07 | -8.71771 | -63.90035 | 300 ft | 11 kts | 176° |
| 2026-04-20 22:07 | -8.71849 | -63.90034 | 299 ft | 13 kts | 186° |
| 2026-04-20 22:07 | -8.71919 | -63.90072 | 301 ft | 11 kts | 223° |
| 2026-04-20 22:08 | -8.71970 | -63.90117 | 301 ft | 9 kts | 222° |
| 2026-04-20 22:08 | -8.71953 | -63.90169 | 301 ft | 11 kts | 341° |
| 2026-04-20 22:08 | -8.71764 | -63.90183 | 299 ft | 63 kts | 356° |
| 2026-04-20 22:08 | -8.71046 | -63.90223 | 302 ft | 139 kts | 358° |
| 2026-04-20 22:09 | -8.69952 | -63.90257 | 717 ft | 165 kts | 359° |
| 2026-04-20 22:09 | -8.68807 | -63.90295 | 1291 ft | 164 kts | 358° |
| 2026-04-20 22:09 | -8.67644 | -63.90376 | 1734 ft | 176 kts | 356° |
| 2026-04-20 22:09 | -8.66347 | -63.90470 | 1974 ft | 198 kts | 357° |
| 2026-04-20 22:10 | -8.64896 | -63.90583 | 2217 ft | 219 kts | 352° |
| 2026-04-20 22:10 | -8.63454 | -63.91230 | 2489 ft | 243 kts | 315° |
| 2026-04-20 22:10 | -8.62648 | -63.92788 | 2916 ft | 263 kts | 277° |
| 2026-04-20 22:10 | -8.62940 | -63.94606 | 3642 ft | 270 kts | 242° |
| 2026-04-20 22:11 | -8.64233 | -63.95960 | 4443 ft | 274 kts | 208° |
| 2026-04-20 22:11 | -8.66068 | -63.96477 | 5235 ft | 278 kts | 187° |
| 2026-04-20 22:11 | -8.67951 | -63.96929 | 6014 ft | 281 kts | 208° |
| 2026-04-20 22:11 | -8.69372 | -63.98266 | 6725 ft | 284 kts | 241° |
| 2026-04-20 22:12 | -8.70060 | -64.00133 | 7482 ft | 285 kts | 257° |
| 2026-04-20 22:12 | -8.70467 | -64.02103 | 8249 ft | 288 kts | 259° |
| 2026-04-20 22:12 | -8.70866 | -64.04094 | 9023 ft | 290 kts | 259° |
| 2026-04-20 22:12 | -8.71268 | -64.06104 | 9770 ft | 293 kts | 259° |
| 2026-04-20 22:13 | -8.71728 | -64.08138 | 10307 ft | 304 kts | 254° |
| 2026-04-20 22:13 | -8.72174 | -64.09525 | 10426 ft | 320 kts | 250° |
| 2026-04-20 22:13 | -8.73017 | -64.11685 | 10557 ft | 343 kts | 248° |
| 2026-04-20 22:13 | -8.73987 | -64.13947 | 10885 ft | 356 kts | 246° |
| 2026-04-20 22:14 | -8.74992 | -64.16252 | 11450 ft | 361 kts | 246° |
| 2026-04-20 22:14 | -8.76346 | -64.19385 | 12252 ft | 366 kts | 244° |
| 2026-04-20 22:14 | -8.77231 | -64.20846 | 12629 ft | 369 kts | 232° |
| 2026-04-20 22:14 | -8.79117 | -64.22604 | 13208 ft | 374 kts | 213° |
| 2026-04-20 22:15 | -8.81510 | -64.23640 | 13783 ft | 378 kts | 193° |
| 2026-04-20 22:15 | -8.84136 | -64.23806 | 14294 ft | 381 kts | 173° |
| 2026-04-20 22:15 | -8.86680 | -64.23058 | 14798 ft | 384 kts | 153° |
| 2026-04-20 22:15 | -8.88826 | -64.21472 | 15288 ft | 385 kts | 132° |
| 2026-04-20 22:16 | -8.90390 | -64.19267 | 15790 ft | 387 kts | 121° |
| 2026-04-20 22:16 | -8.91795 | -64.16933 | 16301 ft | 390 kts | 121° |
| 2026-04-20 22:16 | -8.93200 | -64.14579 | 16804 ft | 392 kts | 121° |
| 2026-04-20 22:16 | -8.94617 | -64.12202 | 17286 ft | 395 kts | 120° |
| 2026-04-20 22:17 | -8.96021 | -64.09847 | 17782 ft | 397 kts | 121° |
| 2026-04-20 22:17 | -8.97471 | -64.07418 | 18238 ft | 400 kts | 121° |
| 2026-04-20 22:17 | -8.98896 | -64.05039 | 18637 ft | 402 kts | 121° |
| 2026-04-20 22:17 | -9.00352 | -64.02615 | 19053 ft | 404 kts | 120° |
| 2026-04-20 22:18 | -9.01816 | -64.00176 | 19460 ft | 406 kts | 120° |
| 2026-04-20 22:18 | -9.03284 | -63.97730 | 19854 ft | 408 kts | 120° |
| 2026-04-20 22:18 | -9.04761 | -63.95270 | 20240 ft | 410 kts | 120° |
| 2026-04-20 22:18 | -9.06242 | -63.92800 | 20623 ft | 412 kts | 120° |
| 2026-04-20 22:19 | -9.07736 | -63.90310 | 21002 ft | 415 kts | 120° |
| 2026-04-20 22:19 | -9.09236 | -63.87810 | 21362 ft | 417 kts | 120° |
| 2026-04-20 22:19 | -9.10744 | -63.85294 | 21726 ft | 419 kts | 120° |
| 2026-04-20 22:19 | -9.12257 | -63.82768 | 22090 ft | 421 kts | 120° |
| 2026-04-20 22:20 | -9.13776 | -63.80226 | 22446 ft | 423 kts | 120° |
| 2026-04-20 22:20 | -9.15305 | -63.77664 | 22782 ft | 426 kts | 120° |
| 2026-04-20 22:20 | -9.16838 | -63.75098 | 23130 ft | 428 kts | 120° |
| 2026-04-20 22:20 | -9.18385 | -63.72509 | 23434 ft | 431 kts | 121° |
| 2026-04-20 22:21 | -9.19943 | -63.69908 | 23699 ft | 433 kts | 121° |
| 2026-04-20 22:21 | -9.21510 | -63.67297 | 23980 ft | 435 kts | 121° |
| 2026-04-20 22:21 | -9.23086 | -63.64670 | 24254 ft | 437 kts | 121° |
| 2026-04-20 22:21 | -9.24661 | -63.62042 | 24535 ft | 438 kts | 121° |
| 2026-04-20 22:22 | -9.26245 | -63.59393 | 24815 ft | 440 kts | 120° |
| 2026-04-20 22:22 | -9.27827 | -63.56742 | 25081 ft | 441 kts | 120° |
| 2026-04-20 22:22 | -9.29416 | -63.54077 | 25355 ft | 443 kts | 120° |
| 2026-04-20 22:22 | -9.31015 | -63.51396 | 25616 ft | 445 kts | 120° |
| 2026-04-20 22:23 | -9.32617 | -63.48715 | 25886 ft | 446 kts | 120° |
| 2026-04-20 22:23 | -9.34226 | -63.46028 | 26137 ft | 448 kts | 120° |
| 2026-04-20 22:23 | -9.35822 | -63.43360 | 26420 ft | 449 kts | 120° |
| 2026-04-20 22:23 | -9.37441 | -63.40650 | 26700 ft | 450 kts | 120° |
| 2026-04-20 22:24 | -9.39059 | -63.37937 | 26978 ft | 451 kts | 121° |
| 2026-04-20 22:24 | -9.40907 | -63.35357 | 27230 ft | 454 kts | 130° |
| 2026-04-20 22:24 | -9.43140 | -63.33090 | 27476 ft | 456 kts | 136° |
| 2026-04-20 22:24 | -9.45457 | -63.30913 | 27928 ft | 452 kts | 136° |
| 2026-04-20 22:25 | -9.47745 | -63.28758 | 28447 ft | 448 kts | 136° |
| 2026-04-20 22:25 | -9.50028 | -63.26600 | 28839 ft | 447 kts | 136° |
| 2026-04-20 22:25 | -9.52297 | -63.24448 | 29211 ft | 446 kts | 135° |
| 2026-04-20 22:25 | -9.54563 | -63.22299 | 29586 ft | 445 kts | 135° |
| 2026-04-20 22:26 | -9.56789 | -63.20185 | 29968 ft | 444 kts | 135° |
| 2026-04-20 22:26 | -9.59042 | -63.18047 | 30293 ft | 443 kts | 135° |
| 2026-04-20 22:26 | -9.61292 | -63.15914 | 30653 ft | 442 kts | 135° |
| 2026-04-20 22:27 | -9.65774 | -63.11668 | 31368 ft | 439 kts | 135° |
| 2026-04-20 22:27 | -9.68001 | -63.09561 | 31754 ft | 437 kts | 135° |
| 2026-04-20 22:27 | -9.70215 | -63.07466 | 32124 ft | 435 kts | 135° |
| 2026-04-20 22:27 | -9.72421 | -63.05375 | 32488 ft | 434 kts | 135° |
| 2026-04-20 22:28 | -9.74629 | -63.03284 | 32850 ft | 432 kts | 135° |
| 2026-04-20 22:28 | -9.76822 | -63.01212 | 33208 ft | 431 kts | 135° |
| 2026-04-20 22:28 | -9.79012 | -62.99140 | 33544 ft | 431 kts | 135° |
| 2026-04-20 22:28 | -9.81200 | -62.97067 | 33851 ft | 430 kts | 135° |
| 2026-04-20 22:29 | -9.83387 | -62.94993 | 34139 ft | 430 kts | 135° |
| 2026-04-20 22:29 | -9.85539 | -62.92951 | 34412 ft | 429 kts | 135° |
| 2026-04-20 22:29 | -9.87716 | -62.90883 | 34687 ft | 428 kts | 135° |
| 2026-04-20 22:29 | -9.89889 | -62.88817 | 34948 ft | 427 kts | 135° |
| 2026-04-20 22:30 | -9.92050 | -62.86764 | 35210 ft | 426 kts | 135° |
| 2026-04-20 22:30 | -9.94216 | -62.84705 | 35483 ft | 425 kts | 135° |
| 2026-04-20 22:30 | -9.96375 | -62.82656 | 35731 ft | 424 kts | 135° |
| 2026-04-20 22:30 | -9.98529 | -62.80612 | 36008 ft | 422 kts | 135° |
| 2026-04-20 22:31 | -10.00672 | -62.78579 | 36274 ft | 421 kts | 135° |
| 2026-04-20 22:31 | -10.02807 | -62.76550 | 36528 ft | 420 kts | 135° |
| 2026-04-20 22:31 | -10.04936 | -62.74525 | 36773 ft | 419 kts | 135° |
| 2026-04-20 22:31 | -10.07067 | -62.72501 | 36876 ft | 419 kts | 135° |
| 2026-04-20 22:32 | -10.11330 | -62.68441 | 36898 ft | 421 kts | 136° |
| 2026-04-20 22:32 | -10.15594 | -62.64378 | 36898 ft | 421 kts | 136° |
| 2026-04-20 22:33 | -10.19888 | -62.60298 | 36898 ft | 421 kts | 136° |
| 2026-04-20 22:33 | -10.24159 | -62.56244 | 36898 ft | 421 kts | 136° |
| 2026-04-20 22:34 | -10.28433 | -62.52161 | 36893 ft | 421 kts | 135° |
| 2026-04-20 22:34 | -10.32700 | -62.48081 | 36896 ft | 421 kts | 136° |
| 2026-04-20 22:35 | -10.36967 | -62.44009 | 36895 ft | 421 kts | 136° |
| 2026-04-20 22:35 | -10.41220 | -62.39954 | 36894 ft | 422 kts | 136° |
| 2026-04-20 22:36 | -10.45524 | -62.35843 | 36893 ft | 422 kts | 136° |
| 2026-04-20 22:36 | -10.49777 | -62.31779 | 36892 ft | 422 kts | 135° |
| 2026-04-20 22:37 | -10.54047 | -62.27694 | 36897 ft | 422 kts | 136° |
| 2026-04-20 22:37 | -10.58326 | -62.23601 | 36896 ft | 422 kts | 135° |
| 2026-04-20 22:38 | -10.62597 | -62.19514 | 36898 ft | 422 kts | 135° |
| 2026-04-20 22:38 | -10.66873 | -62.15420 | 36900 ft | 422 kts | 135° |
| 2026-04-20 22:39 | -10.71143 | -62.11341 | 36895 ft | 422 kts | 136° |
| 2026-04-20 22:39 | -10.75420 | -62.07246 | 36893 ft | 422 kts | 135° |
| 2026-04-20 22:40 | -10.79694 | -62.03142 | 36895 ft | 423 kts | 135° |
| 2026-04-20 22:40 | -10.83949 | -61.99065 | 36897 ft | 423 kts | 136° |
| 2026-04-20 22:41 | -10.88233 | -61.94962 | 36897 ft | 423 kts | 135° |
| 2026-04-20 22:41 | -10.92388 | -61.90733 | 36898 ft | 423 kts | 133° |
| 2026-04-20 22:42 | -10.96399 | -61.86365 | 36906 ft | 422 kts | 132° |
| 2026-04-20 22:42 | -11.00421 | -61.82000 | 36901 ft | 423 kts | 133° |
| 2026-04-20 22:43 | -11.04479 | -61.77668 | 36897 ft | 424 kts | 133° |
| 2026-04-20 22:43 | -11.08563 | -61.73330 | 36897 ft | 424 kts | 133° |
| 2026-04-20 22:44 | -11.12646 | -61.68982 | 36900 ft | 424 kts | 133° |
| 2026-04-20 22:44 | -11.16727 | -61.64635 | 36900 ft | 425 kts | 133° |
| 2026-04-20 22:45 | -11.20809 | -61.60279 | 36905 ft | 425 kts | 133° |
| 2026-04-20 22:45 | -11.24886 | -61.55921 | 36908 ft | 425 kts | 133° |
| 2026-04-20 22:46 | -11.28965 | -61.51564 | 36907 ft | 425 kts | 133° |
| 2026-04-20 22:46 | -11.33057 | -61.47203 | 36908 ft | 425 kts | 133° |
| 2026-04-20 22:47 | -11.37145 | -61.42854 | 36911 ft | 425 kts | 134° |
| 2026-04-20 22:47 | -11.41353 | -61.38607 | 36913 ft | 426 kts | 135° |
| 2026-04-20 22:48 | -11.45614 | -61.34404 | 36912 ft | 426 kts | 135° |
| 2026-04-20 22:48 | -11.49855 | -61.30189 | 36921 ft | 425 kts | 134° |
| 2026-04-20 22:49 | -11.54046 | -61.25993 | 36921 ft | 425 kts | 134° |
| 2026-04-20 22:49 | -11.58256 | -61.21752 | 36919 ft | 425 kts | 135° |
| 2026-04-20 22:50 | -11.62467 | -61.17514 | 36927 ft | 425 kts | 135° |
| 2026-04-20 22:50 | -11.66677 | -61.13283 | 36925 ft | 425 kts | 135° |
| 2026-04-20 22:51 | -11.70889 | -61.09050 | 36927 ft | 425 kts | 135° |
| 2026-04-20 22:51 | -11.75104 | -61.04815 | 36927 ft | 425 kts | 135° |
| 2026-04-20 22:52 | -11.79317 | -61.00590 | 36927 ft | 425 kts | 135° |
| 2026-04-20 22:52 | -11.83525 | -60.96353 | 36932 ft | 425 kts | 135° |
| 2026-04-20 22:53 | -11.87727 | -60.92119 | 36929 ft | 425 kts | 135° |
| 2026-04-20 22:53 | -11.91936 | -60.87875 | 36926 ft | 425 kts | 135° |
| 2026-04-20 22:54 | -11.96124 | -60.83656 | 36927 ft | 425 kts | 135° |
| 2026-04-20 22:54 | -12.00338 | -60.79412 | 36930 ft | 425 kts | 135° |
| 2026-04-20 22:55 | -12.04550 | -60.75164 | 36931 ft | 426 kts | 135° |
| 2026-04-20 22:55 | -12.08757 | -60.70911 | 36940 ft | 425 kts | 135° |
| 2026-04-20 22:56 | -12.12965 | -60.66662 | 36948 ft | 425 kts | 135° |
| 2026-04-20 22:56 | -12.17175 | -60.62422 | 36938 ft | 425 kts | 135° |
| 2026-04-20 22:57 | -12.21392 | -60.58160 | 36929 ft | 426 kts | 135° |
| 2026-04-20 22:57 | -12.25609 | -60.53888 | 36930 ft | 427 kts | 135° |
| 2026-04-20 22:58 | -12.29109 | -60.50333 | 36936 ft | 427 kts | 135° |
| 2026-04-20 22:58 | -12.33336 | -60.46051 | 36940 ft | 427 kts | 135° |
| 2026-04-20 22:59 | -12.37563 | -60.41777 | 36945 ft | 428 kts | 135° |
| 2026-04-20 22:59 | -12.41793 | -60.37501 | 36953 ft | 428 kts | 135° |
| 2026-04-20 23:00 | -12.46023 | -60.33208 | 36950 ft | 428 kts | 135° |
| 2026-04-20 23:00 | -12.50255 | -60.28907 | 36950 ft | 428 kts | 135° |
| 2026-04-20 23:01 | -12.54483 | -60.24612 | 36959 ft | 428 kts | 135° |
| 2026-04-20 23:01 | -12.58692 | -60.20346 | 36960 ft | 429 kts | 135° |
| 2026-04-20 23:02 | -12.62929 | -60.16045 | 36961 ft | 429 kts | 135° |
| 2026-04-20 23:02 | -12.67184 | -60.11710 | 36958 ft | 429 kts | 135° |
| 2026-04-20 23:03 | -12.71401 | -60.07370 | 36958 ft | 430 kts | 134° |
| 2026-04-20 23:03 | -12.75501 | -60.02917 | 36953 ft | 430 kts | 133° |
| 2026-04-20 23:04 | -12.79550 | -59.98440 | 36955 ft | 431 kts | 133° |
| 2026-04-20 23:04 | -12.83670 | -59.93916 | 36953 ft | 432 kts | 133° |
| 2026-04-20 23:05 | -12.87778 | -59.89423 | 36964 ft | 432 kts | 133° |
| 2026-04-20 23:05 | -12.91868 | -59.84964 | 36970 ft | 432 kts | 134° |
| 2026-04-20 23:06 | -12.95988 | -59.80479 | 36968 ft | 432 kts | 134° |
| 2026-04-20 23:06 | -13.00105 | -59.75991 | 36965 ft | 431 kts | 133° |
| 2026-04-20 23:07 | -13.04219 | -59.71502 | 36968 ft | 431 kts | 133° |
| 2026-04-20 23:07 | -13.08317 | -59.67020 | 36966 ft | 431 kts | 133° |
| 2026-04-20 23:08 | -13.12419 | -59.62536 | 36966 ft | 431 kts | 133° |
| 2026-04-20 23:08 | -13.16522 | -59.58051 | 36956 ft | 431 kts | 133° |
| 2026-04-20 23:09 | -13.20615 | -59.53567 | 36959 ft | 431 kts | 133° |
| 2026-04-20 23:09 | -13.24719 | -59.49066 | 36960 ft | 431 kts | 134° |
| 2026-04-20 23:10 | -13.28822 | -59.44575 | 36962 ft | 431 kts | 133° |
| 2026-04-20 23:10 | -13.32898 | -59.40107 | 36964 ft | 431 kts | 134° |
| 2026-04-20 23:11 | -13.36991 | -59.35629 | 36957 ft | 430 kts | 133° |
| 2026-04-20 23:11 | -13.41082 | -59.31138 | 36958 ft | 430 kts | 133° |
| 2026-04-20 23:12 | -13.45170 | -59.26643 | 36964 ft | 430 kts | 133° |
| 2026-04-20 23:12 | -13.49249 | -59.22147 | 36966 ft | 430 kts | 133° |
| 2026-04-20 23:13 | -13.53326 | -59.17663 | 36963 ft | 430 kts | 134° |
| 2026-04-20 23:13 | -13.57416 | -59.13164 | 36960 ft | 431 kts | 134° |
| 2026-04-20 23:14 | -13.61507 | -59.08663 | 36953 ft | 431 kts | 134° |
| 2026-04-20 23:14 | -13.65597 | -59.04154 | 36959 ft | 431 kts | 134° |
| 2026-04-20 23:15 | -13.69691 | -58.99652 | 36961 ft | 431 kts | 134° |
| 2026-04-20 23:15 | -13.73789 | -58.95139 | 36966 ft | 431 kts | 134° |
| 2026-04-20 23:16 | -13.77873 | -58.90628 | 36966 ft | 431 kts | 134° |
| 2026-04-20 23:16 | -13.81956 | -58.86121 | 36964 ft | 431 kts | 134° |
| 2026-04-20 23:17 | -13.86018 | -58.81635 | 36959 ft | 431 kts | 134° |
| 2026-04-20 23:17 | -13.90126 | -58.77090 | 36957 ft | 431 kts | 134° |
| 2026-04-20 23:18 | -13.94202 | -58.72568 | 36956 ft | 431 kts | 134° |
| 2026-04-20 23:18 | -13.98282 | -58.68057 | 36952 ft | 431 kts | 134° |
| 2026-04-20 23:19 | -14.02367 | -58.63546 | 36954 ft | 431 kts | 134° |
| 2026-04-20 23:19 | -14.06450 | -58.59028 | 36954 ft | 431 kts | 134° |
| 2026-04-20 23:20 | -14.10511 | -58.54536 | 36950 ft | 431 kts | 134° |
| 2026-04-20 23:20 | -14.14593 | -58.50006 | 36950 ft | 431 kts | 134° |
| 2026-04-20 23:21 | -14.18670 | -58.45468 | 36956 ft | 432 kts | 134° |
| 2026-04-20 23:21 | -14.22764 | -58.40934 | 36959 ft | 432 kts | 134° |
| 2026-04-20 23:22 | -14.26864 | -58.36401 | 36958 ft | 432 kts | 134° |
| 2026-04-20 23:22 | -14.30952 | -58.31850 | 36960 ft | 432 kts | 134° |
| 2026-04-20 23:23 | -14.35039 | -58.27294 | 36961 ft | 432 kts | 133° |
| 2026-04-20 23:23 | -14.39130 | -58.22746 | 36958 ft | 432 kts | 134° |
| 2026-04-20 23:24 | -14.43223 | -58.18202 | 36955 ft | 432 kts | 134° |
| 2026-04-20 23:24 | -14.47311 | -58.13650 | 36953 ft | 432 kts | 134° |
| 2026-04-20 23:25 | -14.51394 | -58.09098 | 36948 ft | 432 kts | 134° |
| 2026-04-20 23:25 | -14.55450 | -58.04581 | 36950 ft | 432 kts | 134° |
| 2026-04-20 23:26 | -14.59536 | -58.00016 | 36941 ft | 433 kts | 134° |
| 2026-04-20 23:26 | -14.63610 | -57.95450 | 36943 ft | 433 kts | 134° |
| 2026-04-20 23:27 | -14.67694 | -57.90879 | 36941 ft | 433 kts | 134° |
| 2026-04-20 23:27 | -14.71782 | -57.86309 | 36937 ft | 432 kts | 134° |
| 2026-04-20 23:28 | -14.75859 | -57.81749 | 36936 ft | 432 kts | 134° |
| 2026-04-20 23:28 | -14.79932 | -57.77183 | 36927 ft | 432 kts | 134° |
| 2026-04-20 23:29 | -14.84000 | -57.72625 | 36926 ft | 432 kts | 134° |
| 2026-04-20 23:29 | -14.88078 | -57.68057 | 36928 ft | 432 kts | 134° |
| 2026-04-20 23:30 | -14.92144 | -57.63497 | 36923 ft | 432 kts | 134° |
| 2026-04-20 23:30 | -14.96210 | -57.58924 | 36923 ft | 432 kts | 134° |
| 2026-04-20 23:31 | -15.00005 | -57.54101 | 36919 ft | 434 kts | 122° |
| 2026-04-20 23:31 | -15.03022 | -57.48678 | 36919 ft | 435 kts | 121° |
| 2026-04-20 23:32 | -15.06015 | -57.43288 | 36924 ft | 435 kts | 122° |
| 2026-04-20 23:32 | -15.09036 | -57.37855 | 36923 ft | 436 kts | 122° |
| 2026-04-20 23:33 | -15.12056 | -57.32418 | 36923 ft | 436 kts | 122° |
| 2026-04-20 23:33 | -15.15075 | -57.26969 | 36922 ft | 436 kts | 122° |
| 2026-04-20 23:34 | -15.18092 | -57.21518 | 36926 ft | 436 kts | 122° |
| 2026-04-20 23:34 | -15.21098 | -57.16093 | 36928 ft | 436 kts | 122° |
| 2026-04-20 23:35 | -15.25631 | -57.07928 | 36928 ft | 436 kts | 122° |
| 2026-04-20 23:36 | -15.28649 | -57.02468 | 36938 ft | 436 kts | 122° |
| 2026-04-20 23:36 | -15.31665 | -56.97007 | 36943 ft | 436 kts | 122° |
| 2026-04-20 23:37 | -15.34678 | -56.91556 | 36938 ft | 436 kts | 122° |
| 2026-04-20 23:37 | -15.37688 | -56.86105 | 36943 ft | 436 kts | 122° |
| 2026-04-20 23:38 | -15.40701 | -56.80640 | 36932 ft | 436 kts | 122° |
| 2026-04-20 23:38 | -15.43716 | -56.75172 | 36927 ft | 436 kts | 122° |
| 2026-04-20 23:39 | -15.46723 | -56.69712 | 36919 ft | 437 kts | 122° |
| 2026-04-20 23:39 | -15.49730 | -56.64238 | 36920 ft | 437 kts | 122° |
| 2026-04-20 23:40 | -15.52741 | -56.58757 | 36918 ft | 437 kts | 122° |
| 2026-04-20 23:40 | -15.55755 | -56.53273 | 36918 ft | 437 kts | 122° |
| 2026-04-20 23:41 | -15.58768 | -56.47806 | 36926 ft | 437 kts | 122° |
| 2026-04-20 23:41 | -15.61768 | -56.42328 | 36927 ft | 436 kts | 122° |
| 2026-04-20 23:42 | -15.64260 | -56.37780 | 36923 ft | 436 kts | 122° |
| 2026-04-20 23:42 | -15.67258 | -56.32307 | 36922 ft | 436 kts | 122° |
| 2026-04-20 23:43 | -15.70735 | -56.25951 | 36924 ft | 435 kts | 122° |
| 2026-04-20 23:43 | -15.73241 | -56.21377 | 36904 ft | 435 kts | 122° |
| 2026-04-20 23:44 | -15.76230 | -56.15920 | 36903 ft | 434 kts | 122° |
| 2026-04-20 23:44 | -15.79210 | -56.10466 | 36902 ft | 434 kts | 122° |
| 2026-04-20 23:45 | -15.82173 | -56.05037 | 36904 ft | 434 kts | 122° |
| 2026-04-20 23:45 | -15.85147 | -55.99586 | 36904 ft | 434 kts | 122° |
| 2026-04-20 23:46 | -15.88117 | -55.94133 | 36901 ft | 434 kts | 122° |
| 2026-04-20 23:46 | -15.91085 | -55.88686 | 36903 ft | 434 kts | 122° |
| 2026-04-20 23:47 | -15.94050 | -55.83233 | 36903 ft | 434 kts | 122° |
| 2026-04-20 23:47 | -15.97018 | -55.77776 | 36908 ft | 434 kts | 122° |
| 2026-04-20 23:48 | -15.99991 | -55.72307 | 36902 ft | 434 kts | 122° |
| 2026-04-20 23:48 | -16.02961 | -55.66839 | 36904 ft | 435 kts | 122° |
| 2026-04-20 23:49 | -16.05939 | -55.61351 | 36904 ft | 436 kts | 122° |
| 2026-04-20 23:49 | -16.08917 | -55.55849 | 36908 ft | 437 kts | 122° |
| 2026-04-20 23:50 | -16.11902 | -55.50340 | 36911 ft | 437 kts | 122° |
| 2026-04-20 23:50 | -16.14888 | -55.44827 | 36920 ft | 438 kts | 122° |
| 2026-04-20 23:51 | -16.17853 | -55.39343 | 36915 ft | 438 kts | 122° |
| 2026-04-20 23:51 | -16.20863 | -55.33778 | 36930 ft | 438 kts | 123° |
| 2026-04-20 23:52 | -16.23845 | -55.28274 | 36923 ft | 439 kts | 123° |
| 2026-04-20 23:52 | -16.26842 | -55.22729 | 36918 ft | 440 kts | 123° |
| 2026-04-20 23:53 | -16.29832 | -55.17165 | 36921 ft | 441 kts | 123° |
| 2026-04-20 23:53 | -16.32827 | -55.11597 | 36924 ft | 441 kts | 123° |
| 2026-04-20 23:54 | -16.35825 | -55.06034 | 36920 ft | 441 kts | 123° |
| 2026-04-20 23:54 | -16.38825 | -55.00450 | 36928 ft | 441 kts | 123° |
| 2026-04-20 23:55 | -16.41823 | -54.94881 | 36928 ft | 441 kts | 123° |
| 2026-04-20 23:55 | -16.44831 | -54.89310 | 36933 ft | 441 kts | 123° |
| 2026-04-20 23:56 | -16.47822 | -54.83730 | 36927 ft | 441 kts | 123° |
| 2026-04-20 23:56 | -16.50817 | -54.78147 | 36928 ft | 441 kts | 123° |
| 2026-04-20 23:57 | -16.53811 | -54.72556 | 36926 ft | 441 kts | 123° |
| 2026-04-20 23:57 | -16.56805 | -54.66973 | 36927 ft | 441 kts | 124° |
| 2026-04-20 23:58 | -16.60526 | -54.62013 | 36929 ft | 431 kts | 141° |
| 2026-04-20 23:58 | -16.64972 | -54.57840 | 36930 ft | 430 kts | 142° |
| 2026-04-20 23:59 | -16.69429 | -54.53668 | 36928 ft | 430 kts | 142° |
| 2026-04-20 23:59 | -16.73880 | -54.49500 | 36924 ft | 430 kts | 142° |
| 2026-04-21 00:00 | -16.78305 | -54.45343 | 36933 ft | 430 kts | 142° |
| 2026-04-21 00:00 | -16.82755 | -54.41178 | 36941 ft | 430 kts | 142° |
| 2026-04-21 00:01 | -16.87213 | -54.36996 | 36943 ft | 430 kts | 142° |
| 2026-04-21 00:01 | -16.91651 | -54.32823 | 36956 ft | 430 kts | 142° |
| 2026-04-21 00:02 | -16.96104 | -54.28642 | 36957 ft | 430 kts | 142° |
| 2026-04-21 00:02 | -17.00551 | -54.24467 | 36954 ft | 430 kts | 142° |
| 2026-04-21 00:03 | -17.04999 | -54.20280 | 36963 ft | 430 kts | 142° |
| 2026-04-21 00:03 | -17.09437 | -54.16087 | 36968 ft | 429 kts | 142° |
| 2026-04-21 00:04 | -17.13879 | -54.11909 | 36976 ft | 429 kts | 142° |
| 2026-04-21 00:04 | -17.18286 | -54.07759 | 36975 ft | 430 kts | 142° |
| 2026-04-21 00:05 | -17.22721 | -54.03558 | 36980 ft | 430 kts | 142° |
| 2026-04-21 00:05 | -17.27165 | -53.99362 | 36977 ft | 430 kts | 142° |
| 2026-04-21 00:06 | -17.31603 | -53.95174 | 36977 ft | 430 kts | 142° |
| 2026-04-21 00:06 | -17.36005 | -53.90945 | 36981 ft | 430 kts | 142° |
| 2026-04-21 00:07 | -17.40398 | -53.86701 | 36978 ft | 430 kts | 141° |
| 2026-04-21 00:07 | -17.44804 | -53.82453 | 36980 ft | 430 kts | 142° |
| 2026-04-21 00:08 | -17.49214 | -53.78217 | 36982 ft | 430 kts | 142° |
| 2026-04-21 00:08 | -17.53624 | -53.73974 | 36991 ft | 430 kts | 141° |
| 2026-04-21 00:09 | -17.58030 | -53.69721 | 36989 ft | 430 kts | 142° |
| 2026-04-21 00:09 | -17.62431 | -53.65462 | 36994 ft | 430 kts | 142° |
| 2026-04-21 00:10 | -17.66802 | -53.61240 | 36983 ft | 430 kts | 142° |
| 2026-04-21 00:10 | -17.71207 | -53.56994 | 36983 ft | 430 kts | 142° |
| 2026-04-21 00:11 | -17.75602 | -53.52746 | 36986 ft | 430 kts | 142° |
| 2026-04-21 00:11 | -17.79997 | -53.48486 | 36985 ft | 430 kts | 142° |
| 2026-04-21 00:12 | -17.84390 | -53.44232 | 37000 ft | 430 kts | 142° |
| 2026-04-21 00:12 | -17.88807 | -53.39955 | 36983 ft | 437 kts | 142° |
| 2026-04-21 00:13 | -17.93337 | -53.35573 | 36983 ft | 448 kts | 142° |
| 2026-04-21 00:13 | -17.97964 | -53.31094 | 36991 ft | 456 kts | 142° |
| 2026-04-21 00:14 | -18.02680 | -53.26507 | 36992 ft | 466 kts | 141° |
| 2026-04-21 00:14 | -18.07466 | -53.21850 | 36999 ft | 470 kts | 141° |
| 2026-04-21 00:15 | -18.12241 | -53.17205 | 36997 ft | 471 kts | 141° |
| 2026-04-21 00:15 | -18.17043 | -53.12525 | 37001 ft | 471 kts | 141° |
| 2026-04-21 00:16 | -18.21852 | -53.07843 | 36997 ft | 471 kts | 141° |
| 2026-04-21 00:16 | -18.26651 | -53.03173 | 37004 ft | 471 kts | 141° |
| 2026-04-21 00:17 | -18.31461 | -52.98480 | 37013 ft | 471 kts | 142° |
| 2026-04-21 00:17 | -18.36268 | -52.93787 | 37012 ft | 471 kts | 142° |
| 2026-04-21 00:18 | -18.41067 | -52.89093 | 37015 ft | 471 kts | 142° |
| 2026-04-21 00:18 | -18.45874 | -52.84390 | 37015 ft | 471 kts | 142° |
| 2026-04-21 00:19 | -18.50670 | -52.79691 | 37025 ft | 471 kts | 142° |
| 2026-04-21 00:19 | -18.55475 | -52.74985 | 37020 ft | 471 kts | 142° |
| 2026-04-21 00:20 | -18.60265 | -52.70288 | 37023 ft | 471 kts | 142° |
| 2026-04-21 00:20 | -18.65057 | -52.65585 | 37015 ft | 470 kts | 142° |
| 2026-04-21 00:21 | -18.69821 | -52.60914 | 37010 ft | 470 kts | 142° |
| 2026-04-21 00:21 | -18.74614 | -52.56217 | 37013 ft | 470 kts | 142° |
| 2026-04-21 00:22 | -18.79399 | -52.51517 | 37014 ft | 470 kts | 142° |
| 2026-04-21 00:22 | -18.84185 | -52.46802 | 37001 ft | 470 kts | 142° |
| 2026-04-21 00:23 | -18.88968 | -52.42074 | 37000 ft | 470 kts | 142° |
| 2026-04-21 00:23 | -18.93743 | -52.37356 | 36994 ft | 470 kts | 142° |
| 2026-04-21 00:24 | -18.98523 | -52.32631 | 36999 ft | 470 kts | 142° |
| 2026-04-21 00:24 | -19.03304 | -52.27904 | 36997 ft | 470 kts | 142° |
| 2026-04-21 00:25 | -19.08045 | -52.23195 | 36994 ft | 470 kts | 142° |
| 2026-04-21 00:25 | -19.12847 | -52.18419 | 37001 ft | 470 kts | 142° |
| 2026-04-21 00:26 | -19.17587 | -52.13718 | 37000 ft | 470 kts | 142° |
| 2026-04-21 00:26 | -19.22353 | -52.08977 | 37001 ft | 470 kts | 142° |
| 2026-04-21 00:27 | -19.27113 | -52.04234 | 36999 ft | 470 kts | 142° |
| 2026-04-21 00:27 | -19.31875 | -51.99488 | 37000 ft | 470 kts | 142° |
| 2026-04-21 00:28 | -19.36632 | -51.94754 | 37001 ft | 470 kts | 142° |
| 2026-04-21 00:28 | -19.41391 | -51.89999 | 37008 ft | 470 kts | 142° |
| 2026-04-21 00:29 | -19.45344 | -51.86045 | 37001 ft | 469 kts | 142° |
| 2026-04-21 00:29 | -19.50099 | -51.81297 | 36999 ft | 469 kts | 142° |
| 2026-04-21 00:30 | -19.54861 | -51.76544 | 37004 ft | 469 kts | 142° |
| 2026-04-21 00:30 | -19.59600 | -51.71790 | 37008 ft | 469 kts | 142° |
| 2026-04-21 00:31 | -19.64351 | -51.67026 | 37000 ft | 470 kts | 142° |
| 2026-04-21 00:31 | -19.69159 | -51.62341 | 37000 ft | 468 kts | 144° |
| 2026-04-21 00:32 | -19.74159 | -51.57929 | 36993 ft | 467 kts | 146° |
| 2026-04-21 00:32 | -19.79204 | -51.53597 | 36998 ft | 467 kts | 146° |
| 2026-04-21 00:33 | -19.84213 | -51.49194 | 37000 ft | 468 kts | 144° |
| 2026-04-21 00:33 | -19.89170 | -51.44760 | 36988 ft | 460 kts | 144° |
| 2026-04-21 00:34 | -19.94032 | -51.40413 | 36991 ft | 455 kts | 144° |
| 2026-04-21 00:34 | -19.98885 | -51.36089 | 36990 ft | 455 kts | 144° |
| 2026-04-21 00:35 | -20.03732 | -51.31764 | 36995 ft | 455 kts | 144° |
| 2026-04-21 00:35 | -20.08576 | -51.27442 | 36989 ft | 455 kts | 144° |
| 2026-04-21 00:36 | -20.13428 | -51.23112 | 36992 ft | 455 kts | 144° |
| 2026-04-21 00:36 | -20.18251 | -51.18798 | 36990 ft | 455 kts | 144° |
| 2026-04-21 00:37 | -20.23091 | -51.14460 | 36991 ft | 455 kts | 144° |
| 2026-04-21 00:37 | -20.27935 | -51.10114 | 36998 ft | 455 kts | 144° |
| 2026-04-21 00:38 | -20.32781 | -51.05769 | 36996 ft | 455 kts | 144° |
| 2026-04-21 00:38 | -20.37628 | -51.01412 | 36997 ft | 455 kts | 144° |
| 2026-04-21 00:39 | -20.42478 | -50.97048 | 36998 ft | 455 kts | 144° |
| 2026-04-21 00:39 | -20.47330 | -50.92696 | 37015 ft | 455 kts | 143° |
| 2026-04-21 00:40 | -20.52178 | -50.88345 | 37012 ft | 455 kts | 143° |
| 2026-04-21 00:40 | -20.57014 | -50.83990 | 37019 ft | 455 kts | 143° |
| 2026-04-21 00:41 | -20.61858 | -50.79628 | 37011 ft | 455 kts | 143° |
| 2026-04-21 00:41 | -20.66696 | -50.75269 | 37030 ft | 455 kts | 143° |
| 2026-04-21 00:42 | -20.71535 | -50.70897 | 37023 ft | 455 kts | 143° |
| 2026-04-21 00:42 | -20.76331 | -50.66563 | 37019 ft | 454 kts | 143° |
| 2026-04-21 00:43 | -20.81149 | -50.62197 | 37033 ft | 454 kts | 143° |
| 2026-04-21 00:43 | -20.85968 | -50.57817 | 37027 ft | 454 kts | 143° |
| 2026-04-21 00:44 | -20.90781 | -50.53437 | 37034 ft | 454 kts | 143° |
| 2026-04-21 00:44 | -20.95585 | -50.49065 | 37040 ft | 453 kts | 143° |
| 2026-04-21 00:45 | -21.02776 | -50.42498 | 37038 ft | 453 kts | 143° |
| 2026-04-21 00:45 | -21.07568 | -50.38118 | 37037 ft | 452 kts | 143° |
| 2026-04-21 00:46 | -21.12355 | -50.33757 | 37043 ft | 452 kts | 143° |
| 2026-04-21 00:46 | -21.17144 | -50.29383 | 37043 ft | 452 kts | 143° |
| 2026-04-21 00:47 | -21.21917 | -50.25004 | 37048 ft | 452 kts | 143° |
| 2026-04-21 00:47 | -21.26698 | -50.20618 | 37040 ft | 452 kts | 143° |
| 2026-04-21 00:48 | -21.31474 | -50.16240 | 37048 ft | 451 kts | 143° |
| 2026-04-21 00:48 | -21.36246 | -50.11864 | 37053 ft | 451 kts | 143° |
| 2026-04-21 00:49 | -21.41014 | -50.07485 | 37041 ft | 451 kts | 143° |
| 2026-04-21 00:49 | -21.45786 | -50.03093 | 37062 ft | 451 kts | 143° |
| 2026-04-21 00:50 | -21.50552 | -49.98709 | 37049 ft | 452 kts | 143° |
| 2026-04-21 00:50 | -21.55319 | -49.94313 | 37049 ft | 452 kts | 142° |
| 2026-04-21 00:51 | -21.60093 | -49.89916 | 37050 ft | 452 kts | 143° |
| 2026-04-21 00:51 | -21.64845 | -49.85550 | 37054 ft | 452 kts | 142° |
| 2026-04-21 00:52 | -21.69652 | -49.81107 | 37061 ft | 453 kts | 142° |
| 2026-04-21 00:52 | -21.74390 | -49.76721 | 37063 ft | 453 kts | 142° |
| 2026-04-21 00:53 | -21.79177 | -49.72294 | 37065 ft | 453 kts | 142° |
| 2026-04-21 00:53 | -21.83953 | -49.67874 | 37071 ft | 453 kts | 142° |
| 2026-04-21 00:54 | -21.88730 | -49.63450 | 37068 ft | 453 kts | 142° |
| 2026-04-21 00:54 | -21.93135 | -49.58586 | 37069 ft | 459 kts | 128° |
| 2026-04-21 00:55 | -21.95977 | -49.52384 | 37071 ft | 466 kts | 111° |
| 2026-04-21 00:55 | -21.98079 | -49.45774 | 37070 ft | 466 kts | 112° |
| 2026-04-21 00:56 | -22.00202 | -49.39171 | 37076 ft | 467 kts | 112° |
| 2026-04-21 00:56 | -22.02316 | -49.32597 | 37079 ft | 467 kts | 112° |
| 2026-04-21 00:57 | -22.04430 | -49.25985 | 37081 ft | 467 kts | 112° |
| 2026-04-21 00:57 | -22.05482 | -49.22684 | 36785 ft | 465 kts | 112° |
| 2026-04-21 00:57 | -22.06530 | -49.19385 | 36101 ft | 465 kts | 111° |
| 2026-04-21 00:58 | -22.07580 | -49.16085 | 35397 ft | 466 kts | 111° |
| 2026-04-21 00:58 | -22.08628 | -49.12779 | 34694 ft | 467 kts | 111° |
| 2026-04-21 00:58 | -22.09681 | -49.09455 | 33969 ft | 468 kts | 111° |
| 2026-04-21 00:58 | -22.10739 | -49.06128 | 33134 ft | 469 kts | 111° |
| 2026-04-21 00:59 | -22.11796 | -49.02804 | 32305 ft | 471 kts | 111° |
| 2026-04-21 00:59 | -22.12858 | -48.99456 | 31454 ft | 473 kts | 111° |
| 2026-04-21 00:59 | -22.13922 | -48.96090 | 30594 ft | 474 kts | 110° |
| 2026-04-21 00:59 | -22.14988 | -48.92723 | 29739 ft | 475 kts | 110° |
| 2026-04-21 01:00 | -22.16052 | -48.89362 | 29048 ft | 470 kts | 110° |
| 2026-04-21 01:00 | -22.17104 | -48.86044 | 28355 ft | 465 kts | 110° |
| 2026-04-21 01:00 | -22.18145 | -48.82765 | 27682 ft | 460 kts | 110° |
| 2026-04-21 01:00 | -22.19175 | -48.79510 | 27045 ft | 456 kts | 110° |
| 2026-04-21 01:01 | -22.20191 | -48.76297 | 26430 ft | 452 kts | 110° |
| 2026-04-21 01:01 | -22.21205 | -48.73094 | 25818 ft | 448 kts | 110° |
| 2026-04-21 01:01 | -22.22206 | -48.69929 | 25222 ft | 444 kts | 110° |
| 2026-04-21 01:01 | -22.23194 | -48.66794 | 24639 ft | 440 kts | 110° |
| 2026-04-21 01:02 | -22.24162 | -48.63711 | 24057 ft | 436 kts | 110° |
| 2026-04-21 01:02 | -22.25143 | -48.60581 | 23467 ft | 432 kts | 110° |
| 2026-04-21 01:02 | -22.26088 | -48.57568 | 22839 ft | 429 kts | 110° |
| 2026-04-21 01:02 | -22.27044 | -48.54531 | 22253 ft | 424 kts | 110° |
| 2026-04-21 01:03 | -22.27987 | -48.51528 | 21665 ft | 420 kts | 109° |
| 2026-04-21 01:03 | -22.28920 | -48.48550 | 21103 ft | 417 kts | 109° |
| 2026-04-21 01:03 | -22.29846 | -48.45593 | 20559 ft | 413 kts | 109° |
| 2026-04-21 01:03 | -22.30761 | -48.42669 | 20037 ft | 409 kts | 109° |
| 2026-04-21 01:04 | -22.31667 | -48.39770 | 19524 ft | 405 kts | 110° |
| 2026-04-21 01:04 | -22.32563 | -48.36906 | 19024 ft | 401 kts | 109° |
| 2026-04-21 01:04 | -22.33456 | -48.34060 | 18543 ft | 397 kts | 110° |
| 2026-04-21 01:04 | -22.34338 | -48.31247 | 18035 ft | 393 kts | 110° |
| 2026-04-21 01:05 | -22.35209 | -48.28460 | 17534 ft | 389 kts | 109° |
| 2026-04-21 01:05 | -22.36069 | -48.25702 | 17036 ft | 385 kts | 109° |
| 2026-04-21 01:05 | -22.36920 | -48.22974 | 16558 ft | 381 kts | 109° |
| 2026-04-21 01:05 | -22.37749 | -48.20313 | 16097 ft | 377 kts | 109° |
| 2026-04-21 01:06 | -22.38580 | -48.17641 | 15635 ft | 373 kts | 109° |
| 2026-04-21 01:06 | -22.39405 | -48.14992 | 15195 ft | 370 kts | 109° |
| 2026-04-21 01:06 | -22.40223 | -48.12365 | 14980 ft | 368 kts | 109° |
| 2026-04-21 01:06 | -22.41031 | -48.09765 | 14958 ft | 358 kts | 109° |
| 2026-04-21 01:07 | -22.41804 | -48.07273 | 14965 ft | 341 kts | 110° |
| 2026-04-21 01:07 | -22.42539 | -48.04898 | 14893 ft | 328 kts | 110° |
| 2026-04-21 01:07 | -22.43249 | -48.02602 | 14800 ft | 317 kts | 110° |
| 2026-04-21 01:07 | -22.43938 | -48.00377 | 14695 ft | 307 kts | 110° |
| 2026-04-21 01:08 | -22.44604 | -47.98224 | 14579 ft | 299 kts | 110° |
| 2026-04-21 01:08 | -22.45260 | -47.96109 | 14466 ft | 295 kts | 110° |
| 2026-04-21 01:08 | -22.45910 | -47.94013 | 14351 ft | 294 kts | 110° |
| 2026-04-21 01:08 | -22.46564 | -47.91924 | 14239 ft | 293 kts | 110° |
| 2026-04-21 01:09 | -22.47325 | -47.89891 | 14131 ft | 291 kts | 118° |
| 2026-04-21 01:09 | -22.48352 | -47.88017 | 14014 ft | 289 kts | 126° |
| 2026-04-21 01:09 | -22.49596 | -47.86308 | 13911 ft | 288 kts | 130° |
| 2026-04-21 01:09 | -22.50863 | -47.84627 | 13771 ft | 288 kts | 129° |
| 2026-04-21 01:10 | -22.52123 | -47.82951 | 13646 ft | 287 kts | 129° |
| 2026-04-21 01:10 | -22.53381 | -47.81275 | 13519 ft | 286 kts | 129° |
| 2026-04-21 01:10 | -22.54638 | -47.79599 | 13392 ft | 285 kts | 129° |
| 2026-04-21 01:10 | -22.55884 | -47.77935 | 13266 ft | 285 kts | 129° |
| 2026-04-21 01:11 | -22.57136 | -47.76269 | 12947 ft | 285 kts | 129° |
| 2026-04-21 01:11 | -22.57979 | -47.75146 | 12682 ft | 302 kts | 129° |
| 2026-04-21 01:11 | -22.59369 | -47.73294 | 12139 ft | 321 kts | 129° |
| 2026-04-21 01:11 | -22.61192 | -47.70865 | 11662 ft | 300 kts | 129° |
| 2026-04-21 01:12 | -22.62452 | -47.69183 | 11472 ft | 285 kts | 129° |
| 2026-04-21 01:12 | -22.63286 | -47.68069 | 11382 ft | 279 kts | 129° |
| 2026-04-21 01:12 | -22.64883 | -47.65934 | 11130 ft | 271 kts | 130° |
| 2026-04-21 01:12 | -22.66069 | -47.64375 | 10942 ft | 267 kts | 131° |
| 2026-04-21 01:13 | -22.66883 | -47.63346 | 10825 ft | 265 kts | 131° |
| 2026-04-21 01:13 | -22.68059 | -47.61813 | 10630 ft | 265 kts | 130° |
| 2026-04-21 01:13 | -22.69192 | -47.60242 | 10444 ft | 264 kts | 128° |
| 2026-04-21 01:13 | -22.70284 | -47.58645 | 10262 ft | 264 kts | 127° |
| 2026-04-21 01:14 | -22.71350 | -47.57032 | 10074 ft | 264 kts | 126° |
| 2026-04-21 01:14 | -22.72413 | -47.55412 | 9889 ft | 263 kts | 126° |
| 2026-04-21 01:14 | -22.73462 | -47.53808 | 9740 ft | 271 kts | 126° |
| 2026-04-21 01:14 | -22.74554 | -47.52135 | 9616 ft | 268 kts | 126° |
| 2026-04-21 01:15 | -22.75606 | -47.50514 | 9483 ft | 258 kts | 126° |
| 2026-04-21 01:15 | -22.76617 | -47.48955 | 9353 ft | 247 kts | 126° |
| 2026-04-21 01:15 | -22.77591 | -47.47457 | 9229 ft | 238 kts | 127° |
| 2026-04-21 01:15 | -22.78526 | -47.46024 | 9101 ft | 228 kts | 127° |
| 2026-04-21 01:16 | -22.79437 | -47.44629 | 8825 ft | 226 kts | 127° |
| 2026-04-21 01:16 | -22.80341 | -47.43244 | 8540 ft | 224 kts | 127° |
| 2026-04-21 01:16 | -22.81240 | -47.41866 | 8246 ft | 224 kts | 127° |
| 2026-04-21 01:16 | -22.82144 | -47.40477 | 7897 ft | 227 kts | 127° |
| 2026-04-21 01:17 | -22.83060 | -47.39071 | 7588 ft | 229 kts | 127° |
| 2026-04-21 01:17 | -22.83980 | -47.37655 | 7283 ft | 231 kts | 127° |
| 2026-04-21 01:17 | -22.84911 | -47.36223 | 6931 ft | 234 kts | 127° |
| 2026-04-21 01:17 | -22.85816 | -47.34748 | 6577 ft | 237 kts | 120° |
| 2026-04-21 01:18 | -22.86638 | -47.33199 | 6238 ft | 236 kts | 125° |
| 2026-04-21 01:18 | -22.87596 | -47.31761 | 5923 ft | 235 kts | 129° |
| 2026-04-21 01:18 | -22.88602 | -47.30364 | 5624 ft | 235 kts | 129° |
| 2026-04-21 01:18 | -22.89598 | -47.28984 | 5323 ft | 228 kts | 129° |
| 2026-04-21 01:19 | -22.90558 | -47.27649 | 5040 ft | 220 kts | 129° |
| 2026-04-21 01:19 | -22.91468 | -47.26382 | 4765 ft | 211 kts | 128° |
| 2026-04-21 01:19 | -22.92332 | -47.25178 | 4521 ft | 188 kts | 128° |
| 2026-04-21 01:19 | -22.93088 | -47.24125 | 4284 ft | 171 kts | 128° |
| 2026-04-21 01:20 | -22.93800 | -47.23132 | 4057 ft | 158 kts | 128° |
| 2026-04-21 01:20 | -22.94448 | -47.22231 | 3860 ft | 148 kts | 128° |
| 2026-04-21 01:20 | -22.95065 | -47.21370 | 3676 ft | 141 kts | 128° |
| 2026-04-21 01:20 | -22.95656 | -47.20546 | 3509 ft | 137 kts | 128° |
| 2026-04-21 01:21 | -22.96235 | -47.19740 | 3352 ft | 134 kts | 128° |
| 2026-04-21 01:21 | -22.96807 | -47.18942 | 3164 ft | 134 kts | 127° |
| 2026-04-21 01:21 | -22.97378 | -47.18146 | 2978 ft | 133 kts | 129° |
| 2026-04-21 01:21 | -22.97941 | -47.17361 | 2791 ft | 133 kts | 125° |
| 2026-04-21 01:22 | -22.98512 | -47.16564 | 2617 ft | 135 kts | 126° |
| 2026-04-21 01:22 | -22.99084 | -47.15762 | 2458 ft | 132 kts | 127° |
| 2026-04-21 01:22 | -22.99649 | -47.14975 | 2208 ft | 133 kts | 129° |
| 2026-04-21 01:22 | -23.00198 | -47.14212 | 2155 ft | 114 kts | 128° |
| 2026-04-21 01:23 | -23.00481 | -47.13816 | 2151 ft | 30 kts | 133° |
| 2026-04-21 01:23 | -23.00638 | -47.13707 | 2155 ft | 25 kts | 157° |
| 2026-04-21 01:23 | -23.00747 | -47.13682 | 2154 ft | 15 kts | 204° |
| 2026-04-21 01:23 | -23.00737 | -47.13768 | 2154 ft | 12 kts | 307° |
| 2026-04-21 01:24 | -23.00689 | -47.13837 | 2152 ft | 11 kts | 307° |
| 2026-04-21 01:24 | -23.00642 | -47.13905 | 2153 ft | 12 kts | 308° |
| 2026-04-21 01:24 | -23.00575 | -47.13997 | 2154 ft | 19 kts | 309° |
| 2026-04-21 01:24 | -23.00487 | -47.14124 | 2151 ft | 20 kts | 300° |
| 2026-04-21 01:25 | -23.00406 | -47.14235 | 2152 ft | 18 kts | 308° |
| 2026-04-21 01:25 | -23.00332 | -47.14338 | 2155 ft | 17 kts | 308° |
| 2026-04-21 01:25 | -23.00263 | -47.14433 | 2153 ft | 15 kts | 308° |
| 2026-04-21 01:25 | -23.00204 | -47.14523 | 2153 ft | 14 kts | 292° |
| 2026-04-21 01:26 | -23.00240 | -47.14604 | 2155 ft | 12 kts | 222° |
| 2026-04-21 01:26 | -23.00301 | -47.14659 | 2154 ft | 11 kts | 217° |
| 2026-04-21 01:26 | -23.00356 | -47.14708 | 2155 ft | 9 kts | 231° |
| 2026-04-21 01:26 | -23.00338 | -47.14791 | 2155 ft | 16 kts | 307° |
| 2026-04-21 01:27 | -23.00316 | -47.14880 | 2152 ft | 11 kts | 241° |
| 2026-04-21 01:27 | -23.00346 | -47.14920 | 2153 ft | 0 kts | 221° |
| 2026-04-21 01:27 | -23.00348 | -47.14922 | 2153 ft | 1 kts | 221° |
| 2026-04-21 01:27 | -23.00352 | -47.14927 | 2155 ft | 0 kts | 222° |